sensor_id;sensor_type;location;lat;lon;timestamp;pressure;altitude;pressure_sealevel;temperature;humidity
12951;BME280;6540;50.858;7.232;2022-07-01T00:00:46;51283.69;;;-142.34;23.92
12951;BME280;6540;50.858;7.232;2022-07-01T00:03:11;51313.94;;;-142.34;23.75
12951;BME280;6540;50.858;7.232;2022-07-01T00:05:36;51342.19;;;-142.34;24.13
12951;BME280;6540;50.858;7.232;2022-07-01T00:08:02;51263.53;;;-142.34;23.66
12951;BME280;6540;50.858;7.232;2022-07-01T00:10:27;51245.38;;;-142.34;23.33
12951;BME280;6540;50.858;7.232;2022-07-01T00:12:53;51289.75;;;-142.34;23.37
12951;BME280;6540;50.858;7.232;2022-07-01T00:15:18;51259.47;;;-142.34;22.79
12951;BME280;6540;50.858;7.232;2022-07-01T00:17:44;51263.53;;;-142.34;22.91
12951;BME280;6540;50.858;7.232;2022-07-01T00:20:10;51233.25;;;-142.34;23.09
12951;BME280;6540;50.858;7.232;2022-07-01T00:22:36;51253.44;;;-142.34;23.16
12951;BME280;6540;50.858;7.232;2022-07-01T00:25:01;51334.13;;;-142.34;24.07
12951;BME280;6540;50.858;7.232;2022-07-01T00:27:27;51307.88;;;-142.34;23.53
12951;BME280;6540;50.858;7.232;2022-07-01T00:29:53;51293.78;;;-142.34;23.70
12951;BME280;6540;50.858;7.232;2022-07-01T00:32:18;51320.00;;;-142.34;23.95
12951;BME280;6540;50.858;7.232;2022-07-01T00:34:43;51344.19;;;-142.34;24.55
12951;BME280;6540;50.858;7.232;2022-07-01T00:37:09;51317.97;;;-142.34;24.14
12951;BME280;6540;50.858;7.232;2022-07-01T00:39:35;51257.47;;;-142.34;23.36
12951;BME280;6540;50.858;7.232;2022-07-01T00:42:03;51311.94;;;-142.34;23.64
12951;BME280;6540;50.858;7.232;2022-07-01T00:44:30;51263.53;;;-142.34;23.29
12951;BME280;6540;50.858;7.232;2022-07-01T00:46:56;51309.91;;;-142.34;23.73
12951;BME280;6540;50.858;7.232;2022-07-01T00:49:23;51285.72;;;-142.34;23.84
12951;BME280;6540;50.858;7.232;2022-07-01T00:51:49;51249.41;;;-142.34;22.92
12951;BME280;6540;50.858;7.232;2022-07-01T00:54:15;51221.16;;;-142.34;22.86
12951;BME280;6540;50.858;7.232;2022-07-01T00:56:41;51326.03;;;-142.34;24.05
12951;BME280;6540;50.858;7.232;2022-07-01T00:59:06;51249.41;;;-142.34;23.12
12951;BME280;6540;50.858;7.232;2022-07-01T01:01:32;51241.34;;;-142.34;23.13
12951;BME280;6540;50.858;7.232;2022-07-01T01:03:58;51348.22;;;-142.34;24.50
12951;BME280;6540;50.858;7.232;2022-07-01T01:06:23;51293.78;;;-142.34;23.36
12951;BME280;6540;50.858;7.232;2022-07-01T01:08:49;51297.81;;;-142.34;23.80
12951;BME280;6540;50.858;7.232;2022-07-01T01:11:16;51273.59;;;-142.34;23.66
12951;BME280;6540;50.858;7.232;2022-07-01T01:13:42;51301.84;;;-142.34;23.56
12951;BME280;6540;50.858;7.232;2022-07-01T01:16:07;51374.44;;;-142.34;24.97
12951;BME280;6540;50.858;7.232;2022-07-01T01:18:33;51376.47;;;-142.34;25.28
12951;BME280;6540;50.858;7.232;2022-07-01T01:20:59;51364.38;;;-142.34;24.66
12951;BME280;6540;50.858;7.232;2022-07-01T01:23:25;51279.66;;;-142.34;23.55
12951;BME280;6540;50.858;7.232;2022-07-01T01:25:51;51245.38;;;-142.34;22.89
12951;BME280;6540;50.858;7.232;2022-07-01T01:28:16;51253.44;;;-142.34;23.26
12951;BME280;6540;50.858;7.232;2022-07-01T01:30:42;51326.03;;;-142.34;23.98
12951;BME280;6540;50.858;7.232;2022-07-01T01:33:08;51291.75;;;-142.34;23.63
12951;BME280;6540;50.858;7.232;2022-07-01T01:35:34;51305.88;;;-142.34;24.05
12951;BME280;6540;50.858;7.232;2022-07-01T01:37:59;51311.94;;;-142.34;23.87
12951;BME280;6540;50.858;7.232;2022-07-01T01:40:25;51277.63;;;-142.34;23.91
12951;BME280;6540;50.858;7.232;2022-07-01T01:42:51;51279.66;;;-142.34;23.33
12951;BME280;6540;50.858;7.232;2022-07-01T01:45:17;51342.19;;;-142.34;24.42
12951;BME280;6540;50.858;7.232;2022-07-01T01:47:43;51368.41;;;-142.34;24.87
12951;BME280;6540;50.858;7.232;2022-07-01T01:50:11;51338.16;;;-142.34;24.40
12951;BME280;6540;50.858;7.232;2022-07-01T01:52:37;51368.41;;;-142.34;24.51
12951;BME280;6540;50.858;7.232;2022-07-01T01:55:04;51305.88;;;-142.34;23.75
12951;BME280;6540;50.858;7.232;2022-07-01T01:57:29;51326.03;;;-142.34;24.25
12951;BME280;6540;50.858;7.232;2022-07-01T01:59:55;51350.25;;;-142.34;24.35
12951;BME280;6540;50.858;7.232;2022-07-01T02:02:20;51311.94;;;-142.34;24.70
12951;BME280;6540;50.858;7.232;2022-07-01T02:04:46;51273.59;;;-142.34;23.67
12951;BME280;6540;50.858;7.232;2022-07-01T02:07:11;51313.94;;;-142.34;24.01
12951;BME280;6540;50.858;7.232;2022-07-01T02:09:36;51334.13;;;-142.34;24.15
12951;BME280;6540;50.858;7.232;2022-07-01T02:12:02;51370.41;;;-142.34;25.14
12951;BME280;6540;50.858;7.232;2022-07-01T02:14:27;51406.72;;;-142.34;25.68
12951;BME280;6540;50.858;7.232;2022-07-01T02:16:53;51277.63;;;-142.34;23.29
12951;BME280;6540;50.858;7.232;2022-07-01T02:19:18;51346.22;;;-142.34;24.42
12951;BME280;6540;50.858;7.232;2022-07-01T02:21:43;51360.34;;;-142.34;24.36
12951;BME280;6540;50.858;7.232;2022-07-01T02:24:09;51370.41;;;-142.34;24.80
12951;BME280;6540;50.858;7.232;2022-07-01T02:26:34;51311.94;;;-142.34;23.98
12951;BME280;6540;50.858;7.232;2022-07-01T02:29:01;51342.19;;;-142.34;23.58
12951;BME280;6540;50.858;7.232;2022-07-01T02:31:26;51370.41;;;-142.34;24.55
12951;BME280;6540;50.858;7.232;2022-07-01T02:33:52;51366.38;;;-142.34;24.44
12951;BME280;6540;50.858;7.232;2022-07-01T02:36:18;51378.50;;;-142.34;25.14
12951;BME280;6540;50.858;7.232;2022-07-01T02:38:43;51370.41;;;-142.34;24.83
12951;BME280;6540;50.858;7.232;2022-07-01T02:41:08;51380.50;;;-142.34;24.84
12951;BME280;6540;50.858;7.232;2022-07-01T02:43:35;51414.78;;;-142.34;25.22
12951;BME280;6540;50.858;7.232;2022-07-01T02:46:01;51386.56;;;-142.34;24.69
12951;BME280;6540;50.858;7.232;2022-07-01T02:48:26;51326.03;;;-142.34;23.75
12951;BME280;6540;50.858;7.232;2022-07-01T02:50:51;51297.81;;;-142.34;24.17
12951;BME280;6540;50.858;7.232;2022-07-01T02:53:17;51293.78;;;-142.34;23.41
12951;BME280;6540;50.858;7.232;2022-07-01T02:55:42;51287.72;;;-142.34;22.82
12951;BME280;6540;50.858;7.232;2022-07-01T02:58:07;51313.94;;;-142.34;24.10
12951;BME280;6540;50.858;7.232;2022-07-01T03:00:33;51293.78;;;-142.34;23.53
12951;BME280;6540;50.858;7.232;2022-07-01T03:02:58;51273.59;;;-142.34;22.76
12951;BME280;6540;50.858;7.232;2022-07-01T03:05:24;51253.44;;;-142.34;22.78
12951;BME280;6540;50.858;7.232;2022-07-01T03:07:49;51301.84;;;-142.34;23.79
12951;BME280;6540;50.858;7.232;2022-07-01T03:10:15;51265.53;;;-142.34;23.40
12951;BME280;6540;50.858;7.232;2022-07-01T03:12:41;51309.91;;;-142.34;23.84
12951;BME280;6540;50.858;7.232;2022-07-01T03:15:11;51243.34;;;-142.34;22.66
12951;BME280;6540;50.858;7.232;2022-07-01T03:17:43;51281.66;;;-142.34;23.55
12951;BME280;6540;50.858;7.232;2022-07-01T03:20:11;51261.50;;;-142.34;23.19
12951;BME280;6540;50.858;7.232;2022-07-01T03:22:37;51215.09;;;-142.34;22.92
12951;BME280;6540;50.858;7.232;2022-07-01T03:25:04;51265.53;;;-142.34;22.94
12951;BME280;6540;50.858;7.232;2022-07-01T03:27:30;51269.56;;;-142.34;23.51
12951;BME280;6540;50.858;7.232;2022-07-01T03:29:56;51330.06;;;-142.34;24.12
12951;BME280;6540;50.858;7.232;2022-07-01T03:32:21;51271.59;;;-142.34;22.94
12951;BME280;6540;50.858;7.232;2022-07-01T03:34:49;51273.59;;;-142.34;23.21
12951;BME280;6540;50.858;7.232;2022-07-01T03:37:16;51261.50;;;-142.34;23.52
12951;BME280;6540;50.858;7.232;2022-07-01T03:39:42;51239.31;;;-142.34;23.19
12951;BME280;6540;50.858;7.232;2022-07-01T03:42:08;51257.47;;;-142.34;23.17
12951;BME280;6540;50.858;7.232;2022-07-01T03:44:34;51239.31;;;-142.34;22.74
12951;BME280;6540;50.858;7.232;2022-07-01T03:46:59;51237.28;;;-142.34;22.42
12951;BME280;6540;50.858;7.232;2022-07-01T03:49:25;51332.09;;;-142.34;23.62
12951;BME280;6540;50.858;7.232;2022-07-01T03:51:50;51201.00;;;-142.34;22.56
12951;BME280;6540;50.858;7.232;2022-07-01T03:54:16;51251.41;;;-142.34;22.61
12951;BME280;6540;50.858;7.232;2022-07-01T03:57:05;51297.81;;;-142.34;23.94
12951;BME280;6540;50.858;7.232;2022-07-01T03:59:32;51346.22;;;-142.34;23.55
12951;BME280;6540;50.858;7.232;2022-07-01T04:01:59;51277.63;;;-142.34;23.59
12951;BME280;6540;50.858;7.232;2022-07-01T04:04:26;51279.66;;;-142.34;23.29
12951;BME280;6540;50.858;7.232;2022-07-01T04:06:53;51320.00;;;-142.34;23.94
12951;BME280;6540;50.858;7.232;2022-07-01T04:09:18;51301.84;;;-142.34;23.90
12951;BME280;6540;50.858;7.232;2022-07-01T04:11:45;51257.47;;;-142.34;23.50
12951;BME280;6540;50.858;7.232;2022-07-01T04:14:11;51283.69;;;-142.34;23.51
12951;BME280;6540;50.858;7.232;2022-07-01T04:16:37;51279.66;;;-142.34;22.97
12951;BME280;6540;50.858;7.232;2022-07-01T04:19:03;51233.25;;;-142.34;23.31
12951;BME280;6540;50.858;7.232;2022-07-01T04:21:28;51269.56;;;-142.34;22.85
12951;BME280;6540;50.858;7.232;2022-07-01T04:24:12;51233.25;;;-142.34;22.65
12951;BME280;6540;50.858;7.232;2022-07-01T04:26:39;51205.03;;;-142.34;22.26
12951;BME280;6540;50.858;7.232;2022-07-01T04:29:05;51203.00;;;-142.34;22.45
12951;BME280;6540;50.858;7.232;2022-07-01T04:31:31;51217.13;;;-142.34;22.23
12951;BME280;6540;50.858;7.232;2022-07-01T04:33:56;51283.69;;;-142.34;22.94
12951;BME280;6540;50.858;7.232;2022-07-01T04:36:22;51213.09;;;-142.34;22.65
12951;BME280;6540;50.858;7.232;2022-07-01T04:38:49;51233.25;;;-142.34;22.58
12951;BME280;6540;50.858;7.232;2022-07-01T04:41:15;51233.25;;;-142.34;22.18
12951;BME280;6540;50.858;7.232;2022-07-01T04:43:59;51269.56;;;-142.34;23.02
12951;BME280;6540;50.858;7.232;2022-07-01T04:46:24;51247.38;;;-142.34;22.91
12951;BME280;6540;50.858;7.232;2022-07-01T04:48:50;51301.84;;;-142.34;23.58
12951;BME280;6540;50.858;7.232;2022-07-01T04:51:15;51366.38;;;-142.34;24.05
12951;BME280;6540;50.858;7.232;2022-07-01T04:53:40;51350.25;;;-142.34;23.92
12951;BME280;6540;50.858;7.232;2022-07-01T04:56:05;51326.03;;;-142.34;23.80
12951;BME280;6540;50.858;7.232;2022-07-01T04:58:31;51326.03;;;-142.34;23.17
12951;BME280;6540;50.858;7.232;2022-07-01T05:00:56;51305.88;;;-142.34;23.48
12951;BME280;6540;50.858;7.232;2022-07-01T05:03:21;51285.72;;;-142.34;23.39
12951;BME280;6540;50.858;7.232;2022-07-01T05:05:47;51384.53;;;-142.34;24.59
12951;BME280;6540;50.858;7.232;2022-07-01T05:08:12;51328.06;;;-142.34;23.60
12951;BME280;6540;50.858;7.232;2022-07-01T05:10:38;51273.59;;;-142.34;23.48
12951;BME280;6540;50.858;7.232;2022-07-01T05:13:03;51330.06;;;-142.34;23.95
12951;BME280;6540;50.858;7.232;2022-07-01T05:15:29;51346.22;;;-142.34;23.82
12951;BME280;6540;50.858;7.232;2022-07-01T05:17:55;51370.41;;;-142.34;24.26
12951;BME280;6540;50.858;7.232;2022-07-01T05:20:38;51356.31;;;-142.34;24.02
12951;BME280;6540;50.858;7.232;2022-07-01T05:23:22;51386.56;;;-142.34;24.61
12951;BME280;6540;50.858;7.232;2022-07-01T05:25:48;51356.31;;;-142.34;23.98
12951;BME280;6540;50.858;7.232;2022-07-01T05:28:13;51382.53;;;-142.34;24.31
12951;BME280;6540;50.858;7.232;2022-07-01T05:30:38;51398.66;;;-142.34;25.19
12951;BME280;6540;50.858;7.232;2022-07-01T05:33:04;51376.47;;;-142.34;24.04
12951;BME280;6540;50.858;7.232;2022-07-01T05:35:29;51378.50;;;-142.34;23.85
12951;BME280;6540;50.858;7.232;2022-07-01T05:37:56;51390.59;;;-142.34;24.67
12951;BME280;6540;50.858;7.232;2022-07-01T05:40:21;51338.16;;;-142.34;24.26
12951;BME280;6540;50.858;7.232;2022-07-01T05:42:46;51404.72;;;-142.34;25.07
12951;BME280;6540;50.858;7.232;2022-07-01T05:45:12;51439.00;;;-142.34;25.48
12951;BME280;6540;50.858;7.232;2022-07-01T05:47:37;51410.75;;;-142.34;24.90
12951;BME280;6540;50.858;7.232;2022-07-01T05:50:02;51402.69;;;-142.34;25.33
12951;BME280;6540;50.858;7.232;2022-07-01T05:52:28;51439.00;;;-142.34;25.73
12951;BME280;6540;50.858;7.232;2022-07-01T05:54:53;51346.22;;;-142.34;23.95
12951;BME280;6540;50.858;7.232;2022-07-01T05:57:19;51307.88;;;-142.34;23.43
12951;BME280;6540;50.858;7.232;2022-07-01T05:59:44;51326.03;;;-142.34;23.78
12951;BME280;6540;50.858;7.232;2022-07-01T06:02:09;51330.06;;;-142.34;23.61
12951;BME280;6540;50.858;7.232;2022-07-01T06:04:35;51378.50;;;-142.34;24.54
12951;BME280;6540;50.858;7.232;2022-07-01T06:07:00;51289.75;;;-142.34;23.22
12951;BME280;6540;50.858;7.232;2022-07-01T06:09:25;51317.97;;;-142.34;23.67
12951;BME280;6540;50.858;7.232;2022-07-01T06:11:51;51340.16;;;-142.34;24.21
12951;BME280;6540;50.858;7.232;2022-07-01T06:14:16;51390.59;;;-142.34;25.20
12951;BME280;6540;50.858;7.232;2022-07-01T06:16:42;51330.06;;;-142.34;23.96
12951;BME280;6540;50.858;7.232;2022-07-01T06:19:07;51326.03;;;-142.34;23.99
12951;BME280;6540;50.858;7.232;2022-07-01T06:21:33;51293.78;;;-142.34;23.50
12951;BME280;6540;50.858;7.232;2022-07-01T06:23:58;51422.88;;;-142.34;25.89
12951;BME280;6540;50.858;7.232;2022-07-01T06:26:24;51394.63;;;-142.34;25.20
12951;BME280;6540;50.858;7.232;2022-07-01T06:28:49;51382.53;;;-142.34;24.99
12951;BME280;6540;50.858;7.232;2022-07-01T06:31:15;51443.03;;;-142.34;25.32
12951;BME280;6540;50.858;7.232;2022-07-01T06:33:40;51434.97;;;-142.34;25.43
12951;BME280;6540;50.858;7.232;2022-07-01T06:36:05;51398.66;;;-142.34;25.12
12951;BME280;6540;50.858;7.232;2022-07-01T06:38:31;51439.00;;;-142.34;25.69
12951;BME280;6540;50.858;7.232;2022-07-01T06:40:57;51426.91;;;-142.34;25.89
12951;BME280;6540;50.858;7.232;2022-07-01T06:43:41;51447.06;;;-142.34;25.66
12951;BME280;6540;50.858;7.232;2022-07-01T06:46:06;51398.66;;;-142.34;25.12
12951;BME280;6540;50.858;7.232;2022-07-01T06:48:32;51390.59;;;-142.34;25.11
12951;BME280;6540;50.858;7.232;2022-07-01T06:50:57;51301.84;;;-142.34;23.92
12951;BME280;6540;50.858;7.232;2022-07-01T06:53:22;51386.56;;;-142.34;24.94
12951;BME280;6540;50.858;7.232;2022-07-01T06:55:48;51400.69;;;-142.34;25.19
12951;BME280;6540;50.858;7.232;2022-07-01T06:58:13;51307.88;;;-142.34;24.13
12951;BME280;6540;50.858;7.232;2022-07-01T07:00:39;51269.56;;;-142.34;23.78
12951;BME280;6540;50.858;7.232;2022-07-01T07:03:04;51378.50;;;-142.34;24.72
12951;BME280;6540;50.858;7.232;2022-07-01T07:05:32;51313.94;;;-142.34;23.70
12951;BME280;6540;50.858;7.232;2022-07-01T07:07:58;51412.78;;;-142.34;25.03
12951;BME280;6540;50.858;7.232;2022-07-01T07:10:23;51374.44;;;-142.34;24.58
12951;BME280;6540;50.858;7.232;2022-07-01T07:12:49;51420.84;;;-142.34;24.63
12951;BME280;6540;50.858;7.232;2022-07-01T07:15:15;51410.75;;;-142.34;25.50
12951;BME280;6540;50.858;7.232;2022-07-01T07:17:41;51422.88;;;-142.34;25.22
12951;BME280;6540;50.858;7.232;2022-07-01T07:20:07;51346.22;;;-142.34;23.67
12951;BME280;6540;50.858;7.232;2022-07-01T07:22:32;51422.88;;;-142.34;25.58
12951;BME280;6540;50.858;7.232;2022-07-01T07:24:58;51434.97;;;-142.34;25.16
12951;BME280;6540;50.858;7.232;2022-07-01T07:27:23;51386.56;;;-142.34;24.99
12951;BME280;6540;50.858;7.232;2022-07-01T07:29:48;51350.25;;;-142.34;24.34
12951;BME280;6540;50.858;7.232;2022-07-01T07:32:14;51362.34;;;-142.34;24.29
12951;BME280;6540;50.858;7.232;2022-07-01T07:34:39;51406.72;;;-142.34;24.36
12951;BME280;6540;50.858;7.232;2022-07-01T07:37:05;51386.56;;;-142.34;24.14
12951;BME280;6540;50.858;7.232;2022-07-01T07:39:30;51404.72;;;-142.34;25.00
12951;BME280;6540;50.858;7.232;2022-07-01T07:41:55;51350.25;;;-142.34;23.94
12951;BME280;6540;50.858;7.232;2022-07-01T07:44:21;51217.13;;;-142.34;22.61
12951;BME280;6540;50.858;7.232;2022-07-01T07:46:46;51289.75;;;-142.34;23.24
12951;BME280;6540;50.858;7.232;2022-07-01T07:49:12;51374.44;;;-142.34;24.48
12951;BME280;6540;50.858;7.232;2022-07-01T07:51:37;51400.69;;;-142.34;24.60
12951;BME280;6540;50.858;7.232;2022-07-01T07:54:02;51295.78;;;-142.34;23.29
12951;BME280;6540;50.858;7.232;2022-07-01T07:56:29;51346.22;;;-142.34;23.92
12951;BME280;6540;50.858;7.232;2022-07-01T07:58:54;51322.00;;;-142.34;23.36
12951;BME280;6540;50.858;7.232;2022-07-01T08:01:20;51388.56;;;-142.34;24.85
12951;BME280;6540;50.858;7.232;2022-07-01T08:03:46;51374.44;;;-142.34;24.84
12951;BME280;6540;50.858;7.232;2022-07-01T08:06:11;51313.94;;;-142.34;23.70
12951;BME280;6540;50.858;7.232;2022-07-01T08:08:37;51326.03;;;-142.34;24.34
12951;BME280;6540;50.858;7.232;2022-07-01T08:11:02;51289.75;;;-142.34;23.37
12951;BME280;6540;50.858;7.232;2022-07-01T08:13:28;51344.19;;;-142.34;24.28
12951;BME280;6540;50.858;7.232;2022-07-01T08:15:54;51410.75;;;-142.34;24.44
12951;BME280;6540;50.858;7.232;2022-07-01T08:18:20;51376.47;;;-142.34;24.39
12951;BME280;6540;50.858;7.232;2022-07-01T08:20:45;51346.22;;;-142.34;23.80
12951;BME280;6540;50.858;7.232;2022-07-01T08:23:12;51291.75;;;-142.34;23.33
12951;BME280;6540;50.858;7.232;2022-07-01T08:25:38;51344.19;;;-142.34;23.83
12951;BME280;6540;50.858;7.232;2022-07-01T08:28:04;51231.25;;;-142.34;22.78
12951;BME280;6540;50.858;7.232;2022-07-01T08:30:29;51188.88;;;-142.34;21.86
12951;BME280;6540;50.858;7.232;2022-07-01T08:32:55;51223.19;;;-142.34;22.19
12951;BME280;6540;50.858;7.232;2022-07-01T08:35:20;51281.66;;;-142.34;23.63
12951;BME280;6540;50.858;7.232;2022-07-01T08:37:45;51269.56;;;-142.34;23.05
12951;BME280;6540;50.858;7.232;2022-07-01T08:40:11;51196.97;;;-142.34;22.08
12951;BME280;6540;50.858;7.232;2022-07-01T08:42:40;51184.84;;;-142.34;21.83
12951;BME280;6540;50.858;7.232;2022-07-01T08:45:05;51324.03;;;-142.34;23.58
12951;BME280;6540;50.858;7.232;2022-07-01T08:47:31;51164.69;;;-142.34;21.79
12951;BME280;6540;50.858;7.232;2022-07-01T08:50:00;51209.06;;;-142.34;21.51
12951;BME280;6540;50.858;7.232;2022-07-01T08:52:25;51277.63;;;-142.34;22.94
12951;BME280;6540;50.858;7.232;2022-07-01T08:54:51;51326.03;;;-142.34;23.13
12951;BME280;6540;50.858;7.232;2022-07-01T08:57:21;51297.81;;;-142.34;22.88
12951;BME280;6540;50.858;7.232;2022-07-01T09:00:00;51136.44;;;-142.34;21.44
12951;BME280;6540;50.858;7.232;2022-07-01T09:02:26;51217.13;;;-142.34;22.08
12951;BME280;6540;50.858;7.232;2022-07-01T09:05:13;51164.69;;;-142.34;21.42
12951;BME280;6540;50.858;7.232;2022-07-01T09:07:38;51233.25;;;-142.34;22.25
12951;BME280;6540;50.858;7.232;2022-07-01T09:10:14;51235.28;;;-142.34;22.08
12951;BME280;6540;50.858;7.232;2022-07-01T09:12:41;51309.91;;;-142.34;23.19
12951;BME280;6540;50.858;7.232;2022-07-01T09:17:51;51172.75;;;-142.34;21.69
12951;BME280;6540;50.858;7.232;2022-07-01T09:20:43;51148.56;;;-142.34;21.38
12951;BME280;6540;50.858;7.232;2022-07-01T09:23:11;51299.81;;;-142.34;22.82
12951;BME280;6540;50.858;7.232;2022-07-01T09:25:43;51320.00;;;-142.34;24.07
12951;BME280;6540;50.858;7.232;2022-07-01T09:28:17;51144.50;;;-142.34;22.04
12951;BME280;6540;50.858;7.232;2022-07-01T09:30:44;51239.31;;;-142.34;23.01
12951;BME280;6540;50.858;7.232;2022-07-01T09:33:22;51174.78;;;-142.34;22.11
12951;BME280;6540;50.858;7.232;2022-07-01T09:35:49;51376.47;;;-142.34;24.15
12951;BME280;6540;50.858;7.232;2022-07-01T09:38:19;51221.16;;;-142.34;22.29
12951;BME280;6540;50.858;7.232;2022-07-01T09:43:34;51146.53;;;-142.34;21.67
12951;BME280;6540;50.858;7.232;2022-07-01T09:46:07;51368.41;;;-142.34;24.53
12951;BME280;6540;50.858;7.232;2022-07-01T09:50:57;51265.53;;;-142.34;22.82
12951;BME280;6540;50.858;7.232;2022-07-01T09:53:23;51229.22;;;-142.34;21.79
12951;BME280;6540;50.858;7.232;2022-07-01T09:55:48;51295.78;;;-142.34;22.90
12951;BME280;6540;50.858;7.232;2022-07-01T09:58:14;51225.19;;;-142.34;21.94
12951;BME280;6540;50.858;7.232;2022-07-01T10:00:40;51326.03;;;-142.34;23.87
12951;BME280;6540;50.858;7.232;2022-07-01T10:03:06;51322.00;;;-142.34;23.83
12951;BME280;6540;50.858;7.232;2022-07-01T10:05:37;51330.06;;;-142.34;23.49
12951;BME280;6540;50.858;7.232;2022-07-01T10:13:45;51309.91;;;-142.34;23.94
12951;BME280;6540;50.858;7.232;2022-07-01T10:16:11;51263.53;;;-142.34;22.08
12951;BME280;6540;50.858;7.232;2022-07-01T10:18:37;51188.88;;;-142.34;21.74
12951;BME280;6540;50.858;7.232;2022-07-01T10:21:03;51285.72;;;-142.34;22.36
12951;BME280;6540;50.858;7.232;2022-07-01T10:23:41;51334.13;;;-142.34;23.24
12951;BME280;6540;50.858;7.232;2022-07-01T10:26:07;51346.22;;;-142.34;23.41
12951;BME280;6540;50.858;7.232;2022-07-01T10:31:09;51370.41;;;-142.34;24.00
12951;BME280;6540;50.858;7.232;2022-07-01T10:33:43;51205.03;;;-142.34;21.77
12951;BME280;6540;50.858;7.232;2022-07-01T10:36:32;51301.84;;;-142.34;23.19
12951;BME280;6540;50.858;7.232;2022-07-01T10:41:57;51241.34;;;-142.34;22.50
12951;BME280;6540;50.858;7.232;2022-07-01T10:44:24;51332.09;;;-142.34;23.95
12951;BME280;6540;50.858;7.232;2022-07-01T10:46:51;51317.97;;;-142.34;22.41
12951;BME280;6540;50.858;7.232;2022-07-01T10:52:00;51348.22;;;-142.34;22.35
12951;BME280;6540;50.858;7.232;2022-07-01T10:59:41;51277.63;;;-142.34;21.12
12951;BME280;6540;50.858;7.232;2022-07-01T11:02:14;51257.47;;;-142.34;21.37
12951;BME280;6540;50.858;7.232;2022-07-01T11:04:40;51309.91;;;-142.34;22.28
12951;BME280;6540;50.858;7.232;2022-07-01T11:07:05;51132.41;;;-142.34;20.47
12951;BME280;6540;50.858;7.232;2022-07-01T11:09:31;51144.50;;;-142.34;20.51
12951;BME280;6540;50.858;7.232;2022-07-01T11:11:56;51326.03;;;-142.34;22.62
12951;BME280;6540;50.858;7.232;2022-07-01T11:14:22;51279.66;;;-142.34;22.16
12951;BME280;6540;50.858;7.232;2022-07-01T11:16:48;51295.78;;;-142.34;22.21
12951;BME280;6540;50.858;7.232;2022-07-01T11:19:17;51330.06;;;-142.34;22.57
12951;BME280;6540;50.858;7.232;2022-07-01T11:21:52;51265.53;;;-142.34;22.16
12951;BME280;6540;50.858;7.232;2022-07-01T11:24:18;51154.59;;;-142.34;20.95
12951;BME280;6540;50.858;7.232;2022-07-01T11:26:43;51192.91;;;-142.34;20.74
12951;BME280;6540;50.858;7.232;2022-07-01T11:29:10;51245.38;;;-142.34;20.49
12951;BME280;6540;50.858;7.232;2022-07-01T11:31:36;51148.56;;;-142.34;20.11
12951;BME280;6540;50.858;7.232;2022-07-01T11:34:02;51362.34;;;-142.34;23.02
12951;BME280;6540;50.858;7.232;2022-07-01T11:36:28;51374.44;;;-142.34;23.12
12951;BME280;6540;50.858;7.232;2022-07-01T11:39:12;51352.28;;;-142.34;22.31
12951;BME280;6540;50.858;7.232;2022-07-01T11:41:56;51269.56;;;-142.34;22.28
12951;BME280;6540;50.858;7.232;2022-07-01T11:46:57;51285.72;;;-142.34;21.88
12951;BME280;6540;50.858;7.232;2022-07-01T11:49:23;51307.88;;;-142.34;21.66
12951;BME280;6540;50.858;7.232;2022-07-01T11:52:18;51241.34;;;-142.34;21.52
12951;BME280;6540;50.858;7.232;2022-07-01T11:54:46;51243.34;;;-142.34;21.45
12951;BME280;6540;50.858;7.232;2022-07-01T11:57:13;51142.50;;;-142.34;21.15
12951;BME280;6540;50.858;7.232;2022-07-01T11:59:40;51223.19;;;-142.34;22.23
12951;BME280;6540;50.858;7.232;2022-07-01T12:02:06;51279.66;;;-142.34;22.75
12951;BME280;6540;50.858;7.232;2022-07-01T12:04:33;51237.28;;;-142.34;22.19
12951;BME280;6540;50.858;7.232;2022-07-01T12:06:59;51180.81;;;-142.34;20.55
12951;BME280;6540;50.858;7.232;2022-07-01T12:09:25;51281.66;;;-142.34;22.83
12951;BME280;6540;50.858;7.232;2022-07-01T12:11:52;51324.03;;;-142.34;22.99
12951;BME280;6540;50.858;7.232;2022-07-01T12:14:26;51277.63;;;-142.34;22.13
12951;BME280;6540;50.858;7.232;2022-07-01T12:16:55;51271.59;;;-142.34;21.66
12951;BME280;6540;50.858;7.232;2022-07-01T12:22:00;51299.81;;;-142.34;23.04
12951;BME280;6540;50.858;7.232;2022-07-01T12:24:26;51299.81;;;-142.34;22.68
12951;BME280;6540;50.858;7.232;2022-07-01T12:26:52;51273.59;;;-142.34;22.77
12951;BME280;6540;50.858;7.232;2022-07-01T12:29:20;51176.78;;;-142.34;21.82
12951;BME280;6540;50.858;7.232;2022-07-01T12:32:00;51217.13;;;-142.34;21.49
12951;BME280;6540;50.858;7.232;2022-07-01T12:34:48;51384.53;;;-142.34;22.70
12951;BME280;6540;50.858;7.232;2022-07-01T12:37:19;51277.63;;;-142.34;21.42
12951;BME280;6540;50.858;7.232;2022-07-01T12:39:49;51235.28;;;-142.34;21.82
12951;BME280;6540;50.858;7.232;2022-07-01T12:42:22;51118.28;;;-142.34;20.48
12951;BME280;6540;50.858;7.232;2022-07-01T12:44:49;51295.78;;;-142.34;21.33
12951;BME280;6540;50.858;7.232;2022-07-01T12:47:17;51172.75;;;-142.34;20.54
12951;BME280;6540;50.858;7.232;2022-07-01T12:49:43;51257.47;;;-142.34;22.43
12951;BME280;6540;50.858;7.232;2022-07-01T12:52:23;51138.47;;;-142.34;20.74
12951;BME280;6540;50.858;7.232;2022-07-01T12:54:49;51176.78;;;-142.34;21.30
12951;BME280;6540;50.858;7.232;2022-07-01T12:57:14;51178.81;;;-142.34;21.03
12951;BME280;6540;50.858;7.232;2022-07-01T12:59:40;51180.81;;;-142.34;20.65
12951;BME280;6540;50.858;7.232;2022-07-01T13:02:06;51120.31;;;-142.34;20.57
12951;BME280;6540;50.858;7.232;2022-07-01T13:04:31;51031.56;;;-142.34;19.95
12951;BME280;6540;50.858;7.232;2022-07-01T13:06:57;51196.97;;;-142.34;20.63
12951;BME280;6540;50.858;7.232;2022-07-01T13:09:23;51301.84;;;-142.34;22.11
12951;BME280;6540;50.858;7.232;2022-07-01T13:11:48;51192.91;;;-142.34;20.83
12951;BME280;6540;50.858;7.232;2022-07-01T13:14:13;51108.22;;;-142.34;20.27
12951;BME280;6540;50.858;7.232;2022-07-01T13:16:39;51275.63;;;-142.34;22.04
12951;BME280;6540;50.858;7.232;2022-07-01T13:19:04;51273.59;;;-142.34;21.28
12951;BME280;6540;50.858;7.232;2022-07-01T13:21:30;51277.63;;;-142.34;21.69